Insider Buying

 
Symbol Name Keyword
Filings for:
Note: This page automatically refreshes every three minutes.
  Symbol Owner Relationship Date Cost # Shares Value($) Total Shares Filing
Y! NGM Svennilson Peter Director Oct 16, 2019 $10.26 34,900 358,074 16,323,079 Oct 16, 2019, 08:22 PM
Y! NGM Svennilson Peter Director Oct 15, 2019 $10.31 33,200 342,292 16,288,179 Oct 16, 2019, 08:22 PM
Y! NGM Svennilson Peter Director Oct 14, 2019 $10.36 34,900 361,564 16,254,979 Oct 16, 2019, 08:22 PM
Y! NGM GOEDDEL DAVID V Director Oct 16, 2019 $10.26 34,900 358,074 16,513,079 Oct 16, 2019, 08:18 PM
Y! NGM GOEDDEL DAVID V Director Oct 15, 2019 $10.31 33,200 342,292 16,478,179 Oct 16, 2019, 08:18 PM
Y! NGM GOEDDEL DAVID V Director Oct 14, 2019 $10.36 34,900 361,564 16,444,979 Oct 16, 2019, 08:18 PM
Y! BTN Fundamental Global Investors, LLC Director Oct 16, 2019 $2.74 1,801 4,935 1,463,939 Oct 16, 2019, 08:09 PM
Y! BTN Fundamental Global Investors, LLC Director Oct 15, 2019 $2.74 1,801 4,940 1,477,230 Oct 16, 2019, 08:09 PM
Y! BTN Fundamental Global Investors, LLC Director Oct 15, 2019 $2.74 1,800 4,937 1,462,138 Oct 16, 2019, 08:09 PM
Y! BTN Fundamental Global Investors, LLC Director Oct 16, 2019 $2.74 1,800 4,932 1,479,030 Oct 16, 2019, 08:09 PM
Y! NTN ELLIN ROBERT S 10% Owner Oct 14, 2019 $3.66 300 1,097 154,263 Oct 16, 2019, 08:03 PM
Y! RRTS ELLIOTT INTERNATIONAL, L.P. 10% Owner Oct 16, 2019 $10.32 429 4,427 23,258,035 Oct 16, 2019, 07:53 PM
Y! RRTS ELLIOTT INTERNATIONAL, L.P. 10% Owner Oct 15, 2019 $10.40 896 9,318 23,257,606 Oct 16, 2019, 07:53 PM
Y! RRTS ELLIOTT INTERNATIONAL, L.P. 10% Owner Oct 14, 2019 $10.24 1,458 14,930 23,256,710 Oct 16, 2019, 07:53 PM
Y! CNAC COWEN INC. 10% Owner Jun 28, 2019 $10.40 100 1,040 623,062 Oct 16, 2019, 06:05 PM
Y! CNAC COWEN INC. 10% Owner May 30, 2019 $10.34 100 1,034 620,162 Oct 16, 2019, 06:05 PM
Y! CNAC COWEN INC. 10% Owner Jun 27, 2019 $10.38 200 2,076 622,962 Oct 16, 2019, 06:05 PM
Y! CNAC COWEN INC. 10% Owner Apr 30, 2019 $10.30 9,262 95,371 620,062 Oct 16, 2019, 06:05 PM
Y! CNAC COWEN INC. 10% Owner Jun 04, 2019 $10.35 1,100 11,389 622,762 Oct 16, 2019, 06:05 PM
Y! CNAC COWEN INC. 10% Owner Mar 29, 2019 $10.32 100 1,032 610,800 Oct 16, 2019, 06:05 PM
Y! CNAC COWEN INC. 10% Owner May 31, 2019 $10.34 1,500 15,510 621,662 Oct 16, 2019, 06:05 PM
Y! NVLNF STONEPINE CAPITAL, L.P. 10% Owner Oct 11, 2019 $0.65 100,000 64,900 3,803,420 Oct 16, 2019, 05:33 PM
Y! ICD CHOYCE PHILIP A EVP & CFO Oct 16, 2019 $0.86 19,986 17,266 610,719 Oct 16, 2019, 05:30 PM
Y! USAT Hudson Executive Capital LP 10% Owner Oct 16, 2019 $7.26 165,000 1,198,494 10,385,172 Oct 16, 2019, 05:10 PM
Y! USAT Hudson Executive Capital LP 10% Owner Oct 14, 2019 $6.70 80,000 536,024 10,220,172 Oct 16, 2019, 05:10 PM
Y! CNBKA Filler James J 10% Owner Oct 08, 2019 $87.10 100 8,710 725,441 Oct 16, 2019, 05:08 PM
Y! CNBKA Filler James J 10% Owner Oct 16, 2019 $86.89 598 51,960 727,253 Oct 16, 2019, 05:08 PM
Y! CNBKA Filler James J 10% Owner Oct 14, 2019 $87.13 414 36,072 726,655 Oct 16, 2019, 05:08 PM
Y! CNBKA Filler James J 10% Owner Oct 11, 2019 $88.31 800 70,650 726,241 Oct 16, 2019, 05:08 PM
Y! ATEX Owl Creek Asset Management, L.P. 10% Owner Oct 16, 2019 $38.35 9,274 355,650 4,739,731 Oct 16, 2019, 05:03 PM
Y! ATEX Owl Creek Asset Management, L.P. 10% Owner Oct 15, 2019 $38.50 16,116 620,537 4,730,457 Oct 16, 2019, 05:03 PM
Y! ATEX Owl Creek Asset Management, L.P. 10% Owner Oct 11, 2019 $40.48 118,192 4,783,985 4,714,341 Oct 16, 2019, 05:03 PM
Y! HT Shah Neil H President and COO Oct 14, 2019 $13.90 3,571 49,653 347,108 Oct 16, 2019, 04:59 PM
Y! HT Shah Jay H Chief Executive Officer Oct 14, 2019 $13.90 3,571 49,653 301,771 Oct 16, 2019, 04:58 PM
Y! AMAR CHEN STEPHEN T President,Chairman,CEO,CFO Oct 14, 2019 $0.44 1,000 440 675,000 Oct 16, 2019, 04:51 PM
Y! AMAR CHEN STEPHEN T President,Chairman,CEO,CFO Oct 16, 2019 $0.40 2,000 800 677,000 Oct 16, 2019, 04:51 PM
Y! VIRC LEVRA CRAIG L Director Oct 16, 2019 $4.12 2,400 9,888 48,310 Oct 16, 2019, 04:51 PM
Y! CMCT CIM Service Provider, LLC 10% Owner Oct 11, 2019 $19.17 2,468,390 47,315,336 2,586,371 Oct 16, 2019, 04:48 PM
Y! UNIR CURD HOWARD R CEO & Co-Chairman Oct 16, 2019 $1.03 1,900 1,960 8,190,268 Oct 16, 2019, 04:44 PM
Y! KDP DeNooyer Mary Beth Chief Human Resources Officer Oct 15, 2019 $27.54 6,000 165,251 60,000 Oct 16, 2019, 04:33 PM
Y! VIR Alaska Permanent Fund Corp 10% Owner Oct 16, 2019 $20.00 1,500,000 30,000,000 5,555,556 Oct 16, 2019, 04:33 PM
Y! ATNX LAU JOHNSON YIU NAM CEO and Chairman of the Board Oct 16, 2019 $10.16 6,000 60,960 3,055,959 Oct 16, 2019, 04:30 PM
Y! TMQ Gowans James Director Oct 15, 2019 $1.59 500 797 41,400 Oct 16, 2019, 04:28 PM
Y! WOW Crestview Partners III GP, L.P. Director Oct 16, 2019 $5.90 73,878 435,880 31,336,473 Oct 16, 2019, 04:19 PM
Y! SAFE ISTAR INC. 10% Owner Oct 14, 2019 $34.29 7,098 243,398 27,226,121 Oct 16, 2019, 04:08 PM
Y! SAFE ISTAR INC. 10% Owner Oct 16, 2019 $34.13 7,500 255,960 27,226,121 Oct 16, 2019, 04:08 PM
Y! SAFE ISTAR INC. 10% Owner Oct 15, 2019 $34.43 7,500 258,232 27,226,121 Oct 16, 2019, 04:08 PM
Y! LNDC OBUS NELSON Director Oct 14, 2019 $9.32 5,000 46,600 2,860,300 Oct 16, 2019, 03:29 PM
Y! UMH QUIGLEY KENNETH K JR Director Oct 15, 2019 $13.63 73 995 7,354 Oct 16, 2019, 03:25 PM
Y! UMH Mitchell William Edward Director Oct 15, 2019 $13.63 73 995 613 Oct 16, 2019, 03:11 PM
Y! EMMA Niihara Yutaka Chairman and CEO Oct 15, 2019 $2.70 10,300 27,810 10,252,393 Oct 16, 2019, 02:48 PM
Y! EMMA Niihara Yutaka Chairman and CEO Oct 14, 2019 $2.45 8,800 21,560 10,242,093 Oct 16, 2019, 02:48 PM
Y! EMMA LEE WILLIS C Vice Chairman & COO Oct 14, 2019 $2.47 4,000 9,880 191,384 Oct 16, 2019, 02:41 PM
Y! EMMA LEE WILLIS C Vice Chairman & COO Oct 15, 2019 $2.69 7,000 18,830 198,384 Oct 16, 2019, 02:41 PM
Y! YORW Snyder Mark S VP- Engineering Oct 16, 2019 $42.35 18 762 2,024 Oct 16, 2019, 02:21 PM
Y! YORW Snyder Mark S VP- Engineering Oct 15, 2019 $40.86 8 327 2,005 Oct 16, 2019, 02:21 PM
Y! YORW Colon Natalee VP- Human Resources Oct 15, 2019 $40.86 3 123 615 Oct 16, 2019, 02:14 PM
Y! YORW Colon Natalee VP- Human Resources Oct 16, 2019 $42.35 12 508 627 Oct 16, 2019, 02:14 PM
Y! YORW HINES JEFFREY R CEO & President Oct 15, 2019 $40.86 237 9,683 56,079 Oct 16, 2019, 02:07 PM
Y! YORW HINES JEFFREY R CEO & President Oct 16, 2019 $42.35 133 5,633 56,211 Oct 16, 2019, 02:07 PM
Y! YORW HINES JEFFREY R CEO & President Oct 15, 2019 $40.86 54 2,206 12,745 Oct 16, 2019, 02:07 PM
Y! ICD Fitts Travis SVP HR & HSE Oct 16, 2019 $0.89 2,500 2,225 126,951 Oct 16, 2019, 02:07 PM
Y! ICD BATES THOMAS R JR Director Oct 16, 2019 $0.89 20,000 17,828 191,110 Oct 16, 2019, 02:05 PM
Y! ICD Gallegos John A. Jr. President & CEO Oct 16, 2019 $0.90 5,000 4,525 483,710 Oct 16, 2019, 02:02 PM
Y! YORW BRACEY VERNON L VP- Customer Service Oct 16, 2019 $42.35 12 508 793 Oct 16, 2019, 02:00 PM
Y! YORW BRACEY VERNON L VP- Customer Service Oct 15, 2019 $40.86 3 123 780 Oct 16, 2019, 02:00 PM
Y! YORW Hand Joseph Thomas Chief Operating Officer Oct 15, 2019 $40.86 1 41 283 Oct 16, 2019, 01:53 PM
Y! YORW Hand Joseph Thomas Chief Operating Officer Oct 15, 2019 $40.86 1 41 130 Oct 16, 2019, 01:53 PM
Y! YORW Hand Joseph Thomas Chief Operating Officer Oct 15, 2019 $40.86 63 2,574 14,946 Oct 16, 2019, 01:53 PM
Y! YORW Hand Joseph Thomas Chief Operating Officer Oct 16, 2019 $42.35 123 5,209 15,069 Oct 16, 2019, 01:53 PM
Y! YORW Poff Matthew E Chief Financial Officer Oct 15, 2019 $40.86 7 286 1,614 Oct 16, 2019, 01:44 PM
Y! YORW Poff Matthew E Chief Financial Officer Oct 16, 2019 $42.35 3 127 1,617 Oct 16, 2019, 01:44 PM
Y! TPL HORIZON KINETICS ASSET MANAGEMENT LLC 10% Owner Oct 15, 2019 $608.46 9 5,476 313,212 Oct 16, 2019, 01:23 PM
Y! MNR LANDY MICHAEL P President and CEO Oct 15, 2019 $13.74 146 2,006 427,500 Oct 16, 2019, 12:03 PM
Y! MNR Miller Kevin S. Chief Financial Officer Oct 15, 2019 $13.74 146 2,006 49,526 Oct 16, 2019, 11:51 AM
Y! TMQ Gowans James Director Oct 11, 2019 $1.54 3,500 5,390 40,900 Oct 15, 2019, 08:41 PM
Y! ESTA COLLERAN LISA N Director Sep 04, 2019 $19.13 535 10,235 41,766 Oct 15, 2019, 07:05 PM
Y! ESTA COLLERAN LISA N Director May 23, 2019 $21.81 2,300 50,163 41,231 Oct 15, 2019, 07:05 PM
Y! ENDV Collier Alan Brian CEO Oct 15, 2019 $0.01 2,200 23 25,341,797 Oct 15, 2019, 06:35 PM
Y! ENDV Collier Alan Brian CEO Oct 02, 2019 $0.01 3,000 30 25,334,597 Oct 15, 2019, 06:35 PM
Y! ENDV Collier Alan Brian CEO Oct 07, 2019 $0.01 200 2 25,339,797 Oct 15, 2019, 06:35 PM
Y! ENDV Collier Alan Brian CEO Oct 04, 2019 $0.01 2,000 21 25,339,597 Oct 15, 2019, 06:35 PM
Y! ENDV Collier Alan Brian CEO Oct 03, 2019 $0.01 3,000 31 25,337,597 Oct 15, 2019, 06:35 PM
Y! REZI Nefkens Michael G President and CEO Oct 15, 2019 $14.47 691 9,999 19,767 Oct 15, 2019, 06:28 PM
Y! REZI Aarnes Robert B President, ADI Oct 14, 2019 $14.17 20 283 8,935 Oct 15, 2019, 06:24 PM
Y! RCUS Grossman William Chief Medical Officer Oct 14, 2019 $8.00 300 2,400 400 Oct 15, 2019, 06:15 PM
Y! RCUS Grossman William Chief Medical Officer Oct 10, 2019 $8.00 100 800 100 Oct 15, 2019, 06:15 PM
Y! WOW Crestview Partners III GP, L.P. Director Oct 11, 2019 $5.80 52,618 305,184 31,185,595 Oct 15, 2019, 05:48 PM
Y! WOW Crestview Partners III GP, L.P. Director Oct 10, 2019 $5.75 45,730 262,948 31,132,977 Oct 15, 2019, 05:48 PM
Y! WOW Crestview Partners III GP, L.P. Director Oct 15, 2019 $5.95 35,800 213,010 31,262,595 Oct 15, 2019, 05:48 PM
Y! WOW Crestview Partners III GP, L.P. Director Oct 14, 2019 $5.79 41,200 238,548 31,226,795 Oct 15, 2019, 05:48 PM
Y! PCYO Plaisance Capital LLC 10% Owner Oct 11, 2019 $11.01 5,000 55,050 3,749,609 Oct 15, 2019, 05:43 PM
Y! PCYO Plaisance Capital LLC 10% Owner Oct 10, 2019 $10.78 5,000 53,900 3,744,609 Oct 15, 2019, 05:43 PM
Y! PCYO Plaisance Capital LLC 10% Owner Oct 14, 2019 $10.88 5,000 54,400 3,754,609 Oct 15, 2019, 05:43 PM
Y! PFMT PRESCOTT GROUP CAPITAL MANAGEMENT, L.L.C. 10% Owner Oct 15, 2019 $1.03 264,350 272,280 8,267,152 Oct 15, 2019, 05:26 PM
Y! PFMT PRESCOTT GROUP CAPITAL MANAGEMENT, L.L.C. 10% Owner Oct 11, 2019 $1.00 140,142 140,142 8,002,802 Oct 15, 2019, 05:26 PM
Y! AGO Feldstein Andrew T Chief Investment Officer Oct 14, 2019 $45.47 11,700 531,999 105,700 Oct 15, 2019, 05:23 PM
Y! AGO Feldstein Andrew T Chief Investment Officer Oct 11, 2019 $45.88 11,600 532,208 94,000 Oct 15, 2019, 05:23 PM
Y! AGO Feldstein Andrew T Chief Investment Officer Oct 10, 2019 $45.27 11,600 525,132 82,400 Oct 15, 2019, 05:23 PM
Y! SFIX GURLEY J WILLIAM Director Oct 10, 2019 $20.83 150,000 3,124,249 694,507 Oct 15, 2019, 05:21 PM
Next : Last
 
Symbol Name Keyword
Filings for:
Note: This page automatically refreshes every three minutes.
Desktop Version
Symbol Owner Relationship Date Value($)
NGM Svennilson Peter Director Oct 16, 2019 358,074
NGM Svennilson Peter Director Oct 15, 2019 342,292
NGM Svennilson Peter Director Oct 14, 2019 361,564
NGM GOEDDEL DAVID V Director Oct 16, 2019 358,074
NGM GOEDDEL DAVID V Director Oct 15, 2019 342,292
NGM GOEDDEL DAVID V Director Oct 14, 2019 361,564
BTN Fundamental Global Investors, LLC Director Oct 16, 2019 4,935
BTN Fundamental Global Investors, LLC Director Oct 15, 2019 4,940
BTN Fundamental Global Investors, LLC Director Oct 15, 2019 4,937
BTN Fundamental Global Investors, LLC Director Oct 16, 2019 4,932
NTN ELLIN ROBERT S 10% Owner Oct 14, 2019 1,097
RRTS ELLIOTT INTERNATIONAL, L.P. 10% Owner Oct 16, 2019 4,427
RRTS ELLIOTT INTERNATIONAL, L.P. 10% Owner Oct 15, 2019 9,318
RRTS ELLIOTT INTERNATIONAL, L.P. 10% Owner Oct 14, 2019 14,930
CNAC COWEN INC. 10% Owner Jun 28, 2019 1,040
CNAC COWEN INC. 10% Owner May 30, 2019 1,034
CNAC COWEN INC. 10% Owner Jun 27, 2019 2,076
CNAC COWEN INC. 10% Owner Apr 30, 2019 95,371
CNAC COWEN INC. 10% Owner Jun 04, 2019 11,389
CNAC COWEN INC. 10% Owner Mar 29, 2019 1,032
CNAC COWEN INC. 10% Owner May 31, 2019 15,510
NVLNF STONEPINE CAPITAL, L.P. 10% Owner Oct 11, 2019 64,900
ICD CHOYCE PHILIP A EVP & CFO Oct 16, 2019 17,266
USAT Hudson Executive Capital LP 10% Owner Oct 16, 2019 1,198,494
USAT Hudson Executive Capital LP 10% Owner Oct 14, 2019 536,024
CNBKA Filler James J 10% Owner Oct 08, 2019 8,710
CNBKA Filler James J 10% Owner Oct 16, 2019 51,960
CNBKA Filler James J 10% Owner Oct 14, 2019 36,072
CNBKA Filler James J 10% Owner Oct 11, 2019 70,650
ATEX Owl Creek Asset Management, L.P. 10% Owner Oct 16, 2019 355,650
ATEX Owl Creek Asset Management, L.P. 10% Owner Oct 15, 2019 620,537
ATEX Owl Creek Asset Management, L.P. 10% Owner Oct 11, 2019 4,783,985
HT Shah Neil H President and COO Oct 14, 2019 49,653
HT Shah Jay H Chief Executive Officer Oct 14, 2019 49,653
AMAR CHEN STEPHEN T President,Chairman,CEO,CFO Oct 14, 2019 440
AMAR CHEN STEPHEN T President,Chairman,CEO,CFO Oct 16, 2019 800
VIRC LEVRA CRAIG L Director Oct 16, 2019 9,888
CMCT CIM Service Provider, LLC 10% Owner Oct 11, 2019 47,315,336
UNIR CURD HOWARD R CEO & Co-Chairman Oct 16, 2019 1,960
KDP DeNooyer Mary Beth Chief Human Resources Officer Oct 15, 2019 165,251
VIR Alaska Permanent Fund Corp 10% Owner Oct 16, 2019 30,000,000
ATNX LAU JOHNSON YIU NAM CEO and Chairman of the Board Oct 16, 2019 60,960
TMQ Gowans James Director Oct 15, 2019 797
WOW Crestview Partners III GP, L.P. Director Oct 16, 2019 435,880
SAFE ISTAR INC. 10% Owner Oct 14, 2019 243,398
SAFE ISTAR INC. 10% Owner Oct 16, 2019 255,960
SAFE ISTAR INC. 10% Owner Oct 15, 2019 258,232
LNDC OBUS NELSON Director Oct 14, 2019 46,600
UMH QUIGLEY KENNETH K JR Director Oct 15, 2019 995
UMH Mitchell William Edward Director Oct 15, 2019 995
EMMA Niihara Yutaka Chairman and CEO Oct 15, 2019 27,810
EMMA Niihara Yutaka Chairman and CEO Oct 14, 2019 21,560
EMMA LEE WILLIS C Vice Chairman & COO Oct 14, 2019 9,880
EMMA LEE WILLIS C Vice Chairman & COO Oct 15, 2019 18,830
YORW Snyder Mark S VP- Engineering Oct 16, 2019 762
YORW Snyder Mark S VP- Engineering Oct 15, 2019 327
YORW Colon Natalee VP- Human Resources Oct 15, 2019 123
YORW Colon Natalee VP- Human Resources Oct 16, 2019 508
YORW HINES JEFFREY R CEO & President Oct 15, 2019 9,683
YORW HINES JEFFREY R CEO & President Oct 16, 2019 5,633
YORW HINES JEFFREY R CEO & President Oct 15, 2019 2,206
ICD Fitts Travis SVP HR & HSE Oct 16, 2019 2,225
ICD BATES THOMAS R JR Director Oct 16, 2019 17,828
ICD Gallegos John A. Jr. President & CEO Oct 16, 2019 4,525
YORW BRACEY VERNON L VP- Customer Service Oct 16, 2019 508
YORW BRACEY VERNON L VP- Customer Service Oct 15, 2019 123
YORW Hand Joseph Thomas Chief Operating Officer Oct 15, 2019 41
YORW Hand Joseph Thomas Chief Operating Officer Oct 15, 2019 41
YORW Hand Joseph Thomas Chief Operating Officer Oct 15, 2019 2,574
YORW Hand Joseph Thomas Chief Operating Officer Oct 16, 2019 5,209
YORW Poff Matthew E Chief Financial Officer Oct 15, 2019 286
YORW Poff Matthew E Chief Financial Officer Oct 16, 2019 127
TPL HORIZON KINETICS ASSET MANAGEMENT LLC 10% Owner Oct 15, 2019 5,476
MNR LANDY MICHAEL P President and CEO Oct 15, 2019 2,006
MNR Miller Kevin S. Chief Financial Officer Oct 15, 2019 2,006
TMQ Gowans James Director Oct 11, 2019 5,390
ESTA COLLERAN LISA N Director Sep 04, 2019 10,235
ESTA COLLERAN LISA N Director May 23, 2019 50,163
ENDV Collier Alan Brian CEO Oct 15, 2019 23
ENDV Collier Alan Brian CEO Oct 02, 2019 30
ENDV Collier Alan Brian CEO Oct 07, 2019 2
ENDV Collier Alan Brian CEO Oct 04, 2019 21
ENDV Collier Alan Brian CEO Oct 03, 2019 31
REZI Nefkens Michael G President and CEO Oct 15, 2019 9,999
REZI Aarnes Robert B President, ADI Oct 14, 2019 283
RCUS Grossman William Chief Medical Officer Oct 14, 2019 2,400
RCUS Grossman William Chief Medical Officer Oct 10, 2019 800
WOW Crestview Partners III GP, L.P. Director Oct 11, 2019 305,184
WOW Crestview Partners III GP, L.P. Director Oct 10, 2019 262,948
WOW Crestview Partners III GP, L.P. Director Oct 15, 2019 213,010
WOW Crestview Partners III GP, L.P. Director Oct 14, 2019 238,548
PCYO Plaisance Capital LLC 10% Owner Oct 11, 2019 55,050
PCYO Plaisance Capital LLC 10% Owner Oct 10, 2019 53,900
PCYO Plaisance Capital LLC 10% Owner Oct 14, 2019 54,400
PFMT PRESCOTT GROUP CAPITAL MANAGEMENT, L.L.C. 10% Owner Oct 15, 2019 272,280
PFMT PRESCOTT GROUP CAPITAL MANAGEMENT, L.L.C. 10% Owner Oct 11, 2019 140,142
AGO Feldstein Andrew T Chief Investment Officer Oct 14, 2019 531,999
AGO Feldstein Andrew T Chief Investment Officer Oct 11, 2019 532,208
AGO Feldstein Andrew T Chief Investment Officer Oct 10, 2019 525,132
SFIX GURLEY J WILLIAM Director Oct 10, 2019 3,124,249
Next : Last